Main page
METAR-TAF:

METAR-TAF

Airports :

Oil platform

K13-a, Netherlands

latitude: 53-13-04N, longitude: 3-13-13E, elevation: 31 m

Current weather observation

The report was made 27 minutes ago, at 19:25 UTC
Wind 32 kt from the North/Northeast
Temperature 6°C
Humidity 65%
Pressure 1031 hPa

METAR: EHJR 281925Z AUTO 02032KT //// // ///////// 06/M00 Q1031 RE// W08/H25

Time: 20:52 (19:52 UTC)


TAF: missing

Weather observations and forecasts of more than 4000 airports (METAR and TAF reports).

The available stations are represented by yellow and red dots on the map.

Hover mouse over dot to see the name of the station.

Then click to see weather observations and forecasts.

To change the map : click on the green buttons with a black cross to zoom in, on the green button with a dash to zoom out, or on the green arrows for adjacent maps.


METAR-TAF: